Tommy E. — WCX6752 — position and weather

sailwx.info

Track history (hours):
 
Tides and Currents Weather Stations Pressure Air Temp Water Temp Dewpoint Dewpoint Depression Visibility Wind Speed Wind Dir Waves Ship Positions

Tommy E.

Owner: INC, Echo Towing Service, BAYTOWN, TX. More information available from US FCC via Universal Licensing System and Coast Guard Vessel Documentation Center.

Last reported at 2017-Dec-17 06:14 UTC. Time now 2017-Dec-18 12:34 UTC.
Position N 29°46' W 095°07'.

Length 17 m.

Type: Towing. MMSI: 366969670.

Date/timePositionNaut miles runAvg speedWind from/ knotsBaromVisibWave heightAir tempDewpointWater temp
2017-Dec-17 06:14N 29°46' W 095°07'1 2.7
2017-Dec-17 05:59N 29°46' W 095°06'2 3.7
2017-Dec-17 05:22N 29°44' W 095°08'3 7.0
2017-Dec-17 04:55N 29°45' W 095°12'3 7.2
2017-Dec-17 04:29N 29°43' W 095°15'0 0.5
2017-Dec-17 03:52N 29°44' W 095°15'0 0.1
2017-Dec-17 03:30N 29°44' W 095°15'1 2.5
2017-Dec-17 03:00N 29°44' W 095°14'2 4.3
2017-Dec-17 02:27N 29°45' W 095°11'3 4.5
2017-Dec-17 01:43N 29°44' W 095°07'2 4.6
2017-Dec-17 01:20N 29°45' W 095°06'0 0.0
2017-Dec-16 07:57N 29°45' W 095°06'1 2.5
2017-Dec-16 07:29N 29°46' W 095°07'0 0.2
2017-Dec-16 06:59N 29°46' W 095°07'0 0.1
2017-Dec-16 06:30N 29°46' W 095°07'0 0.0
2017-Dec-16 06:00N 29°46' W 095°07'0 0.0
2017-Dec-16 05:30N 29°46' W 095°07'0 0.0
2017-Dec-16 04:59N 29°46' W 095°07'0 0.0
2017-Dec-16 04:28N 29°46' W 095°07'0 0.4
2017-Dec-16 04:00N 29°46' W 095°07'2 3.4
2017-Dec-16 03:26N 29°44' W 095°08'4 7.1
2017-Dec-16 02:56N 29°44' W 095°12'3 5.8
2017-Dec-16 02:29N 29°44' W 095°15'0 0.0
2017-Dec-16 01:57N 29°44' W 095°15'2 4.2
2017-Dec-16 01:28N 29°44' W 095°13'3 5.7
2017-Dec-16 00:57N 29°44' W 095°09'1 0.6
2017-Dec-15 23:20N 29°44' W 095°08'7 6.2
2017-Dec-15 22:17N 29°44' W 095°16'0 1.1
2017-Dec-15 22:00N 29°43' W 095°16'4 5.6
2017-Dec-15 21:21N 29°44' W 095°12'3 6.1
2017-Dec-15 20:51N 29°44' W 095°08'5 1.1
2017-Dec-15 16:30N 29°44' W 095°03'3 5.6
2017-Dec-15 16:00N 29°42' W 095°01'3 5.2
2017-Dec-15 15:30N 29°41' W 094°58'2 3.8
2017-Dec-15 15:00N 29°41' W 094°56'1 2.1
2017-Dec-15 14:20N 29°42' W 094°56'1 3.1
2017-Dec-15 13:57N 29°43' W 094°57'2 1.0
2017-Dec-15 12:07N 29°41' W 094°55'1 5.4
2017-Dec-15 11:54N 29°40' W 094°56'2 6.0
2017-Dec-15 11:30N 29°41' W 094°59'2 3.6
2017-Dec-15 11:00N 29°42' W 095°00'3 6.0
2017-Dec-15 10:30N 29°44' W 095°03'3 0.8
2017-Dec-15 06:50N 29°45' W 095°06'2 3.2
2017-Dec-15 06:07N 29°44' W 095°08'1 6.2
2017-Dec-15 06:00N 29°44' W 095°09'2 2.2
2017-Dec-15 05:16N 29°45' W 095°10'1 5.3
2017-Dec-15 05:00N 29°44' W 095°09'1 0.2
2017-Dec-15 02:06N 29°44' W 095°08'4 3.2
2017-Dec-15 00:48N 29°43' W 095°13'1 1.6
2017-Dec-15 00:24N 29°44' W 095°14'13 2.2
2017-Dec-14 18:30N 29°37' W 095°01'0 0.0
2017-Dec-14 18:00N 29°37' W 095°01'0 0.0
2017-Dec-14 17:30N 29°37' W 095°01'0 0.0
2017-Dec-14 17:00N 29°37' W 095°01'0 0.3
2017-Dec-14 16:30N 29°37' W 095°01'0 0.3
2017-Dec-14 16:00N 29°37' W 095°02'0 0.0
2017-Dec-14 15:00N 29°37' W 095°02'0 0.0
2017-Dec-14 14:30N 29°37' W 095°02'0 0.0
2017-Dec-14 14:00N 29°37' W 095°02'0 0.0
2017-Dec-14 13:30N 29°37' W 095°02'0 0.0
2017-Dec-14 13:00N 29°37' W 095°02'0 0.0
2017-Dec-14 12:30N 29°37' W 095°02'0 0.0
2017-Dec-14 12:00N 29°37' W 095°02'0 0.0
2017-Dec-14 11:30N 29°37' W 095°02'0 0.0
2017-Dec-14 11:00N 29°37' W 095°02'0 0.0
2017-Dec-14 10:30N 29°37' W 095°02'0 0.0
2017-Dec-14 10:00N 29°37' W 095°02'0 0.0
2017-Dec-14 09:30N 29°37' W 095°02'0 0.0
2017-Dec-14 09:00N 29°37' W 095°02'0 0.0
2017-Dec-14 08:30N 29°37' W 095°02'0 0.0
2017-Dec-14 08:00N 29°37' W 095°02'0 0.0
2017-Dec-14 07:30N 29°37' W 095°02'0 0.0
2017-Dec-14 07:00N 29°37' W 095°02'0 0.0
2017-Dec-14 06:30N 29°37' W 095°02'0 0.0
2017-Dec-14 06:00N 29°37' W 095°02'0 0.0
2017-Dec-14 05:30N 29°37' W 095°02'0 0.0
2017-Dec-14 05:00N 29°37' W 095°02'0 0.0
2017-Dec-14 04:31N 29°37' W 095°02'0 0.0
2017-Dec-14 04:00N 29°37' W 095°02'0 0.0
2017-Dec-14 03:30N 29°37' W 095°02'0 0.0
2017-Dec-14 03:00N 29°37' W 095°02'0 0.0
2017-Dec-14 02:30N 29°37' W 095°02'0 0.0
2017-Dec-14 02:00N 29°37' W 095°02'0 0.0
2017-Dec-14 01:30N 29°37' W 095°02'0 0.0
2017-Dec-14 01:00N 29°37' W 095°02'0 0.0
2017-Dec-14 00:31N 29°37' W 095°02'0 0.0
2017-Dec-14 00:00N 29°37' W 095°02'0 0.0
2017-Dec-13 23:31N 29°37' W 095°02'0 0.0
2017-Dec-13 23:00N 29°37' W 095°02'0 0.0
2017-Dec-13 22:31N 29°37' W 095°02'0 0.0
2017-Dec-13 22:01N 29°37' W 095°02'0 0.1
2017-Dec-13 21:30N 29°37' W 095°01'2 3.9
2017-Dec-13 21:00N 29°37' W 094°59'2 3.5
2017-Dec-13 20:30N 29°38' W 094°58'3 5.5
2017-Dec-13 20:00N 29°41' W 094°59'3 5.3
2017-Dec-13 19:30N 29°43' W 095°01'2 4.9
2017-Dec-13 19:00N 29°44' W 095°03'0 0.2
2017-Dec-13 17:13N 29°44' W 095°03'2 5.7
2017-Dec-13 16:49N 29°42' W 095°01'2 6.4
2017-Dec-13 16:30N 29°41' W 094°59'2 4.7
2017-Dec-13 16:00N 29°41' W 094°57'2 3.2
2017-Dec-13 15:27N 29°42' W 094°55'1 1.5
2017-Dec-13 14:45N 29°42' W 094°56'1 2.4
2017-Dec-13 14:26N 29°43' W 094°57'2 3.7
2017-Dec-13 13:56N 29°45' W 094°56'1 2.7
2017-Dec-13 13:29N 29°46' W 094°55'3 0.2
2017-Dec-12 23:22N 29°43' W 094°57'2 1.4
2017-Dec-12 22:12N 29°42' W 094°55'1 2.0
2017-Dec-12 21:54N 29°41' W 094°55'1 2.7
2017-Dec-12 21:26N 29°40' W 094°56'1 3.3
2017-Dec-12 21:00N 29°41' W 094°58'2 3.8
2017-Dec-12 20:30N 29°42' W 094°60'3 5.4
2017-Dec-12 20:00N 29°44' W 095°02'3 5.4
2017-Dec-12 19:23N 29°46' W 095°05'1 0.2
2017-Dec-12 12:17N 29°46' W 095°06'0 0.0
2017-Dec-12 12:00N 29°46' W 095°06'0 0.1
2017-Dec-12 11:30N 29°46' W 095°06'3 4.6
2017-Dec-12 10:54N 29°44' W 095°03'3 5.7
2017-Dec-12 10:27N 29°42' W 095°01'3 6.1
2017-Dec-12 10:00N 29°41' W 094°59'3 7.1
2017-Dec-12 09:31N 29°37' W 094°57'3 6.6
2017-Dec-12 09:01N 29°37' W 095°01'0 0.5
2017-Dec-12 08:31N 29°37' W 095°01'0 0.1
2017-Dec-12 08:00N 29°37' W 095°02'0 0.0
2017-Dec-12 07:29N 29°37' W 095°02'0 0.0
2017-Dec-12 07:00N 29°37' W 095°02'0 0.0
2017-Dec-12 06:30N 29°37' W 095°02'0 0.0
2017-Dec-12 06:00N 29°37' W 095°02'0 0.0
2017-Dec-12 05:30N 29°37' W 095°02'0 0.0
2017-Dec-12 04:59N 29°37' W 095°02'0 0.0
2017-Dec-12 04:29N 29°37' W 095°02'0 0.0
2017-Dec-12 04:00N 29°37' W 095°02'0 0.0
2017-Dec-12 03:30N 29°37' W 095°02'0 0.0
2017-Dec-12 03:00N 29°37' W 095°02'0 0.0
2017-Dec-12 02:30N 29°37' W 095°02'0 0.0
2017-Dec-12 01:59N 29°37' W 095°02'0 0.0
2017-Dec-12 01:30N 29°37' W 095°02'1 2.6
2017-Dec-12 01:00N 29°37' W 095°00'2 4.9
2017-Dec-12 00:30N 29°39' W 094°58'4 7.7
2017-Dec-12 00:00N 29°42' W 095°00'4 7.2
2017-Dec-11 23:30N 29°44' W 095°03'5 1.2
2017-Dec-11 19:43N 29°44' W 095°09'3 0.4
2017-Dec-11 13:38N 29°46' W 095°07'0 0.0
2017-Dec-11 13:16N 29°46' W 095°07'0 1.1
2017-Dec-11 12:50N 29°46' W 095°06'1 1.9
2017-Dec-11 12:30N 29°46' W 095°05'0 0.7
2017-Dec-11 12:00N 29°46' W 095°05'0 0.0
2017-Dec-11 11:31N 29°46' W 095°05'0 0.0
2017-Dec-11 11:00N 29°46' W 095°05'0 0.0
2017-Dec-11 10:31N 29°46' W 095°05'1 0.7
2017-Dec-11 09:31N 29°46' W 095°06'0 0.0
2017-Dec-11 08:46N 29°46' W 095°06'0 0.0
2017-Dec-11 08:13N 29°46' W 095°06'0 0.0
2017-Dec-11 06:45N 29°46' W 095°06'0 0.0
2017-Dec-11 06:29N 29°46' W 095°06'0 0.0
2017-Dec-11 05:52N 29°46' W 095°06'0 0.0
2017-Dec-11 04:41N 29°46' W 095°06'0 0.0
2017-Dec-11 04:13N 29°46' W 095°06'2 0.5
2017-Dec-10 23:26N 29°44' W 095°08'4 6.8
2017-Dec-10 22:50N 29°44' W 095°13'2 4.3
2017-Dec-10 22:22N 29°44' W 095°15'0 0.8
2017-Dec-10 21:48N 29°43' W 095°15'2 6.2
2017-Dec-10 21:29N 29°44' W 095°13'3 5.6
2017-Dec-10 20:57N 29°44' W 095°09'3 0.3
2017-Dec-10 11:21N 29°46' W 095°06'0 0.0
2017-Dec-10 10:19N 29°46' W 095°06'1 2.3
2017-Dec-10 10:00N 29°46' W 095°05'1 1.9
2017-Dec-10 09:30N 29°46' W 095°04'3 5.4
2017-Dec-10 09:00N 29°44' W 095°02'3 5.8
2017-Dec-10 08:30N 29°42' W 094°60'3 5.2
2017-Dec-10 07:59N 29°41' W 094°57'2 3.5
2017-Dec-10 07:30N 29°42' W 094°55'1 2.1
2017-Dec-10 07:00N 29°42' W 094°56'2 2.9
2017-Dec-10 06:26N 29°44' W 094°56'2 3.7
2017-Dec-10 05:58N 29°46' W 094°55'3 0.3
2017-Dec-09 19:24N 29°43' W 094°57'2 1.9
2017-Dec-09 18:24N 29°42' W 094°55'2 2.7
2017-Dec-09 17:43N 29°40' W 094°56'1 4.3
2017-Dec-09 17:30N 29°41' W 094°57'2 3.6
2017-Dec-09 17:00N 29°41' W 094°59'2 4.6
2017-Dec-09 16:29N 29°43' W 095°01'2 4.3
2017-Dec-09 16:00N 29°44' W 095°03'3 4.0
2017-Dec-09 15:21N 29°45' W 095°06'0 1.2
2017-Dec-09 15:00N 29°46' W 095°06'0 0.4
2017-Dec-09 14:30N 29°45' W 095°06'0 0.0
2017-Dec-09 14:00N 29°45' W 095°06'1 1.0
2017-Dec-09 13:26N 29°46' W 095°06'1 1.2
2017-Dec-09 13:00N 29°46' W 095°05'0 0.0
2017-Dec-09 11:30N 29°46' W 095°05'0 0.0
2017-Dec-09 10:59N 29°46' W 095°05'0 0.0
2017-Dec-09 10:11N 29°46' W 095°05'0 0.0
2017-Dec-09 09:58N 29°46' W 095°05'0 0.0
2017-Dec-09 08:13N 29°46' W 095°05'0 0.0
2017-Dec-09 07:59N 29°46' W 095°05'0 0.0
2017-Dec-09 07:28N 29°46' W 095°05'0 0.0
2017-Dec-09 07:00N 29°46' W 095°05'0 0.0
2017-Dec-09 06:29N 29°46' W 095°05'3 4.1
2017-Dec-09 05:46N 29°44' W 095°08'0 0.0
2017-Dec-08 16:25N 29°44' W 095°08'0 0.8
2017-Dec-08 16:00N 29°44' W 095°08'0 0.0
2017-Dec-08 15:30N 29°44' W 095°08'0 0.0
2017-Dec-08 15:00N 29°44' W 095°08'0 0.0
2017-Dec-08 14:30N 29°44' W 095°08'0 0.0
2017-Dec-08 14:00N 29°44' W 095°08'0 0.0
2017-Dec-08 13:30N 29°44' W 095°08'0 0.0
2017-Dec-08 13:00N 29°44' W 095°08'0 0.0
2017-Dec-08 12:30N 29°44' W 095°08'0 0.0
2017-Dec-08 12:00N 29°44' W 095°08'0 0.0
2017-Dec-08 11:30N 29°44' W 095°08'0 0.0
2017-Dec-08 11:00N 29°44' W 095°08'0 0.0
2017-Dec-08 10:30N 29°44' W 095°08'0 0.0
2017-Dec-08 10:00N 29°44' W 095°08'0 0.0
2017-Dec-08 09:30N 29°44' W 095°08'0 0.0
2017-Dec-08 09:00N 29°44' W 095°08'0 0.0
2017-Dec-08 08:30N 29°44' W 095°08'0 0.0
2017-Dec-08 08:00N 29°44' W 095°08'0 0.0
2017-Dec-08 07:30N 29°44' W 095°08'0 0.0
2017-Dec-08 07:00N 29°44' W 095°08'0 0.0
2017-Dec-08 06:30N 29°44' W 095°08'0 0.0
2017-Dec-08 06:00N 29°44' W 095°08'0 0.0
2017-Dec-08 05:30N 29°44' W 095°08'0 0.0
2017-Dec-08 05:00N 29°44' W 095°08'0 0.0
2017-Dec-08 04:30N 29°44' W 095°08'0 0.0
2017-Dec-08 04:00N 29°44' W 095°08'0 0.6
2017-Dec-08 03:28N 29°44' W 095°08'0 0.7
2017-Dec-08 03:00N 29°44' W 095°08'0 0.0
2017-Dec-08 02:30N 29°44' W 095°08'0 0.0
2017-Dec-08 02:00N 29°44' W 095°08'0 0.0
2017-Dec-08 01:30N 29°44' W 095°08'0 0.2
2017-Dec-08 00:01N 29°44' W 095°08'3 0.4
2017-Dec-07 16:50N 29°45' W 095°06'3 2.4
2017-Dec-07 15:36N 29°44' W 095°09'1 0.2
2017-Dec-07 08:59N 29°44' W 095°10'0 0.0
2017-Dec-07 08:30N 29°44' W 095°10'0 0.0
2017-Dec-07 08:00N 29°44' W 095°10'0 0.0
2017-Dec-07 07:29N 29°44' W 095°10'0 0.0
2017-Dec-07 07:00N 29°44' W 095°10'0 0.0
2017-Dec-07 06:30N 29°44' W 095°10'  
Track history (hours):
 
Tides and Currents Weather Stations Pressure Air Temp Water Temp Dewpoint Dewpoint Depression Visibility Wind Speed Wind Dir Waves Ship Positions

Tommy E.

Owner: INC, Echo Towing Service, BAYTOWN, TX. More information available from US FCC via Universal Licensing System and Coast Guard Vessel Documentation Center.

Last reported at 2017-Dec-17 06:14 UTC. Time now 2017-Dec-18 12:34 UTC.
Position N 29°46' W 095°07'.

Length 17 m.

Type: Towing. MMSI: 366969670.

Date/timePositionNaut miles runAvg speedWind from/ knotsBaromVisibWave heightAir tempDewpointWater temp
2017-Dec-17 06:14N 29°46' W 095°07'1 2.7
2017-Dec-17 05:59N 29°46' W 095°06'2 3.7
2017-Dec-17 05:22N 29°44' W 095°08'3 7.0
2017-Dec-17 04:55N 29°45' W 095°12'3 7.2
2017-Dec-17 04:29N 29°43' W 095°15'0 0.5
2017-Dec-17 03:52N 29°44' W 095°15'0 0.1
2017-Dec-17 03:30N 29°44' W 095°15'1 2.5
2017-Dec-17 03:00N 29°44' W 095°14'2 4.3
2017-Dec-17 02:27N 29°45' W 095°11'3 4.5
2017-Dec-17 01:43N 29°44' W 095°07'2 4.6
2017-Dec-17 01:20N 29°45' W 095°06'0 0.0
2017-Dec-16 07:57N 29°45' W 095°06'1 2.5
2017-Dec-16 07:29N 29°46' W 095°07'0 0.2
2017-Dec-16 06:59N 29°46' W 095°07'0 0.1
2017-Dec-16 06:30N 29°46' W 095°07'0 0.0
2017-Dec-16 06:00N 29°46' W 095°07'0 0.0
2017-Dec-16 05:30N 29°46' W 095°07'0 0.0
2017-Dec-16 04:59N 29°46' W 095°07'0 0.0
2017-Dec-16 04:28N 29°46' W 095°07'0 0.4
2017-Dec-16 04:00N 29°46' W 095°07'2 3.4
2017-Dec-16 03:26N 29°44' W 095°08'4 7.1
2017-Dec-16 02:56N 29°44' W 095°12'3 5.8
2017-Dec-16 02:29N 29°44' W 095°15'0 0.0
2017-Dec-16 01:57N 29°44' W 095°15'2 4.2
2017-Dec-16 01:28N 29°44' W 095°13'3 5.7
2017-Dec-16 00:57N 29°44' W 095°09'1 0.6
2017-Dec-15 23:20N 29°44' W 095°08'7 6.2
2017-Dec-15 22:17N 29°44' W 095°16'0 1.1
2017-Dec-15 22:00N 29°43' W 095°16'4 5.6
2017-Dec-15 21:21N 29°44' W 095°12'3 6.1
2017-Dec-15 20:51N 29°44' W 095°08'5 1.1
2017-Dec-15 16:30N 29°44' W 095°03'3 5.6
2017-Dec-15 16:00N 29°42' W 095°01'3 5.2
2017-Dec-15 15:30N 29°41' W 094°58'2 3.8
2017-Dec-15 15:00N 29°41' W 094°56'1 2.1
2017-Dec-15 14:20N 29°42' W 094°56'1 3.1
2017-Dec-15 13:57N 29°43' W 094°57'2 1.0
2017-Dec-15 12:07N 29°41' W 094°55'1 5.4
2017-Dec-15 11:54N 29°40' W 094°56'2 6.0
2017-Dec-15 11:30N 29°41' W 094°59'2 3.6
2017-Dec-15 11:00N 29°42' W 095°00'3 6.0
2017-Dec-15 10:30N 29°44' W 095°03'3 0.8
2017-Dec-15 06:50N 29°45' W 095°06'2 3.2
2017-Dec-15 06:07N 29°44' W 095°08'1 6.2
2017-Dec-15 06:00N 29°44' W 095°09'2 2.2
2017-Dec-15 05:16N 29°45' W 095°10'1 5.3
2017-Dec-15 05:00N 29°44' W 095°09'1 0.2
2017-Dec-15 02:06N 29°44' W 095°08'4 3.2
2017-Dec-15 00:48N 29°43' W 095°13'1 1.6
2017-Dec-15 00:24N 29°44' W 095°14'13 2.2
2017-Dec-14 18:30N 29°37' W 095°01'0 0.0
2017-Dec-14 18:00N 29°37' W 095°01'0 0.0
2017-Dec-14 17:30N 29°37' W 095°01'0 0.0
2017-Dec-14 17:00N 29°37' W 095°01'0 0.3
2017-Dec-14 16:30N 29°37' W 095°01'0 0.3
2017-Dec-14 16:00N 29°37' W 095°02'0 0.0
2017-Dec-14 15:00N 29°37' W 095°02'0 0.0
2017-Dec-14 14:30N 29°37' W 095°02'0 0.0
2017-Dec-14 14:00N 29°37' W 095°02'0 0.0
2017-Dec-14 13:30N 29°37' W 095°02'0 0.0
2017-Dec-14 13:00N 29°37' W 095°02'0 0.0
2017-Dec-14 12:30N 29°37' W 095°02'0 0.0
2017-Dec-14 12:00N 29°37' W 095°02'0 0.0
2017-Dec-14 11:30N 29°37' W 095°02'0 0.0
2017-Dec-14 11:00N 29°37' W 095°02'0 0.0
2017-Dec-14 10:30N 29°37' W 095°02'0 0.0
2017-Dec-14 10:00N 29°37' W 095°02'0 0.0
2017-Dec-14 09:30N 29°37' W 095°02'0 0.0
2017-Dec-14 09:00N 29°37' W 095°02'0 0.0
2017-Dec-14 08:30N 29°37' W 095°02'0 0.0
2017-Dec-14 08:00N 29°37' W 095°02'0 0.0
2017-Dec-14 07:30N 29°37' W 095°02'0 0.0
2017-Dec-14 07:00N 29°37' W 095°02'0 0.0
2017-Dec-14 06:30N 29°37' W 095°02'0 0.0
2017-Dec-14 06:00N 29°37' W 095°02'0 0.0
2017-Dec-14 05:30N 29°37' W 095°02'0 0.0
2017-Dec-14 05:00N 29°37' W 095°02'0 0.0
2017-Dec-14 04:31N 29°37' W 095°02'0 0.0
2017-Dec-14 04:00N 29°37' W 095°02'0 0.0
2017-Dec-14 03:30N 29°37' W 095°02'0 0.0
2017-Dec-14 03:00N 29°37' W 095°02'0 0.0
2017-Dec-14 02:30N 29°37' W 095°02'0 0.0
2017-Dec-14 02:00N 29°37' W 095°02'0 0.0
2017-Dec-14 01:30N 29°37' W 095°02'0 0.0
2017-Dec-14 01:00N 29°37' W 095°02'0 0.0
2017-Dec-14 00:31N 29°37' W 095°02'0 0.0
2017-Dec-14 00:00N 29°37' W 095°02'0 0.0
2017-Dec-13 23:31N 29°37' W 095°02'0 0.0
2017-Dec-13 23:00N 29°37' W 095°02'0 0.0
2017-Dec-13 22:31N 29°37' W 095°02'0 0.0
2017-Dec-13 22:01N 29°37' W 095°02'0 0.1
2017-Dec-13 21:30N 29°37' W 095°01'2 3.9
2017-Dec-13 21:00N 29°37' W 094°59'2 3.5
2017-Dec-13 20:30N 29°38' W 094°58'3 5.5
2017-Dec-13 20:00N 29°41' W 094°59'3 5.3
2017-Dec-13 19:30N 29°43' W 095°01'2 4.9
2017-Dec-13 19:00N 29°44' W 095°03'0 0.2
2017-Dec-13 17:13N 29°44' W 095°03'2 5.7
2017-Dec-13 16:49N 29°42' W 095°01'2 6.4
2017-Dec-13 16:30N 29°41' W 094°59'2 4.7
2017-Dec-13 16:00N 29°41' W 094°57'2 3.2
2017-Dec-13 15:27N 29°42' W 094°55'1 1.5
2017-Dec-13 14:45N 29°42' W 094°56'1 2.4
2017-Dec-13 14:26N 29°43' W 094°57'2 3.7
2017-Dec-13 13:56N 29°45' W 094°56'1 2.7
2017-Dec-13 13:29N 29°46' W 094°55'3 0.2
2017-Dec-12 23:22N 29°43' W 094°57'2 1.4
2017-Dec-12 22:12N 29°42' W 094°55'1 2.0
2017-Dec-12 21:54N 29°41' W 094°55'1 2.7
2017-Dec-12 21:26N 29°40' W 094°56'1 3.3
2017-Dec-12 21:00N 29°41' W 094°58'2 3.8
2017-Dec-12 20:30N 29°42' W 094°60'3 5.4
2017-Dec-12 20:00N 29°44' W 095°02'3 5.4
2017-Dec-12 19:23N 29°46' W 095°05'1 0.2
2017-Dec-12 12:17N 29°46' W 095°06'0 0.0
2017-Dec-12 12:00N 29°46' W 095°06'0 0.1
2017-Dec-12 11:30N 29°46' W 095°06'3 4.6
2017-Dec-12 10:54N 29°44' W 095°03'3 5.7
2017-Dec-12 10:27N 29°42' W 095°01'3 6.1
2017-Dec-12 10:00N 29°41' W 094°59'3 7.1
2017-Dec-12 09:31N 29°37' W 094°57'3 6.6
2017-Dec-12 09:01N 29°37' W 095°01'0 0.5
2017-Dec-12 08:31N 29°37' W 095°01'0 0.1
2017-Dec-12 08:00N 29°37' W 095°02'0 0.0
2017-Dec-12 07:29N 29°37' W 095°02'0 0.0
2017-Dec-12 07:00N 29°37' W 095°02'0 0.0
2017-Dec-12 06:30N 29°37' W 095°02'0 0.0
2017-Dec-12 06:00N 29°37' W 095°02'0 0.0
2017-Dec-12 05:30N 29°37' W 095°02'0 0.0
2017-Dec-12 04:59N 29°37' W 095°02'0 0.0
2017-Dec-12 04:29N 29°37' W 095°02'0 0.0
2017-Dec-12 04:00N 29°37' W 095°02'0 0.0
2017-Dec-12 03:30N 29°37' W 095°02'0 0.0
2017-Dec-12 03:00N 29°37' W 095°02'0 0.0
2017-Dec-12 02:30N 29°37' W 095°02'0 0.0
2017-Dec-12 01:59N 29°37' W 095°02'0 0.0
2017-Dec-12 01:30N 29°37' W 095°02'1 2.6
2017-Dec-12 01:00N 29°37' W 095°00'2 4.9
2017-Dec-12 00:30N 29°39' W 094°58'4 7.7
2017-Dec-12 00:00N 29°42' W 095°00'4 7.2
2017-Dec-11 23:30N 29°44' W 095°03'5 1.2
2017-Dec-11 19:43N 29°44' W 095°09'3 0.4
2017-Dec-11 13:38N 29°46' W 095°07'0 0.0
2017-Dec-11 13:16N 29°46' W 095°07'0 1.1
2017-Dec-11 12:50N 29°46' W 095°06'1 1.9
2017-Dec-11 12:30N 29°46' W 095°05'0 0.7
2017-Dec-11 12:00N 29°46' W 095°05'0 0.0
2017-Dec-11 11:31N 29°46' W 095°05'0 0.0
2017-Dec-11 11:00N 29°46' W 095°05'0 0.0
2017-Dec-11 10:31N 29°46' W 095°05'1 0.7
2017-Dec-11 09:31N 29°46' W 095°06'0 0.0
2017-Dec-11 08:46N 29°46' W 095°06'0 0.0
2017-Dec-11 08:13N 29°46' W 095°06'0 0.0
2017-Dec-11 06:45N 29°46' W 095°06'0 0.0
2017-Dec-11 06:29N 29°46' W 095°06'0 0.0
2017-Dec-11 05:52N 29°46' W 095°06'0 0.0
2017-Dec-11 04:41N 29°46' W 095°06'0 0.0
2017-Dec-11 04:13N 29°46' W 095°06'2 0.5
2017-Dec-10 23:26N 29°44' W 095°08'4 6.8
2017-Dec-10 22:50N 29°44' W 095°13'2 4.3
2017-Dec-10 22:22N 29°44' W 095°15'0 0.8
2017-Dec-10 21:48N 29°43' W 095°15'2 6.2
2017-Dec-10 21:29N 29°44' W 095°13'3 5.6
2017-Dec-10 20:57N 29°44' W 095°09'3 0.3
2017-Dec-10 11:21N 29°46' W 095°06'0 0.0
2017-Dec-10 10:19N 29°46' W 095°06'1 2.3
2017-Dec-10 10:00N 29°46' W 095°05'1 1.9
2017-Dec-10 09:30N 29°46' W 095°04'3 5.4
2017-Dec-10 09:00N 29°44' W 095°02'3 5.8
2017-Dec-10 08:30N 29°42' W 094°60'3 5.2
2017-Dec-10 07:59N 29°41' W 094°57'2 3.5
2017-Dec-10 07:30N 29°42' W 094°55'1 2.1
2017-Dec-10 07:00N 29°42' W 094°56'2 2.9
2017-Dec-10 06:26N 29°44' W 094°56'2 3.7
2017-Dec-10 05:58N 29°46' W 094°55'3 0.3
2017-Dec-09 19:24N 29°43' W 094°57'2 1.9
2017-Dec-09 18:24N 29°42' W 094°55'2 2.7
2017-Dec-09 17:43N 29°40' W 094°56'1 4.3
2017-Dec-09 17:30N 29°41' W 094°57'2 3.6
2017-Dec-09 17:00N 29°41' W 094°59'2 4.6
2017-Dec-09 16:29N 29°43' W 095°01'2 4.3
2017-Dec-09 16:00N 29°44' W 095°03'3 4.0
2017-Dec-09 15:21N 29°45' W 095°06'0 1.2
2017-Dec-09 15:00N 29°46' W 095°06'0 0.4
2017-Dec-09 14:30N 29°45' W 095°06'0 0.0
2017-Dec-09 14:00N 29°45' W 095°06'1 1.0
2017-Dec-09 13:26N 29°46' W 095°06'1 1.2
2017-Dec-09 13:00N 29°46' W 095°05'0 0.0
2017-Dec-09 11:30N 29°46' W 095°05'0 0.0
2017-Dec-09 10:59N 29°46' W 095°05'0 0.0
2017-Dec-09 10:11N 29°46' W 095°05'0 0.0
2017-Dec-09 09:58N 29°46' W 095°05'0 0.0
2017-Dec-09 08:13N 29°46' W 095°05'0 0.0
2017-Dec-09 07:59N 29°46' W 095°05'0 0.0
2017-Dec-09 07:28N 29°46' W 095°05'0 0.0
2017-Dec-09 07:00N 29°46' W 095°05'0 0.0
2017-Dec-09 06:29N 29°46' W 095°05'3 4.1
2017-Dec-09 05:46N 29°44' W 095°08'0 0.0
2017-Dec-08 16:25N 29°44' W 095°08'0 0.8
2017-Dec-08 16:00N 29°44' W 095°08'0 0.0
2017-Dec-08 15:30N 29°44' W 095°08'0 0.0
2017-Dec-08 15:00N 29°44' W 095°08'0 0.0
2017-Dec-08 14:30N 29°44' W 095°08'0 0.0
2017-Dec-08 14:00N 29°44' W 095°08'0 0.0
2017-Dec-08 13:30N 29°44' W 095°08'0 0.0
2017-Dec-08 13:00N 29°44' W 095°08'0 0.0
2017-Dec-08 12:30N 29°44' W 095°08'0 0.0
2017-Dec-08 12:00N 29°44' W 095°08'0 0.0
2017-Dec-08 11:30N 29°44' W 095°08'0 0.0
2017-Dec-08 11:00N 29°44' W 095°08'0 0.0
2017-Dec-08 10:30N 29°44' W 095°08'0 0.0
2017-Dec-08 10:00N 29°44' W 095°08'0 0.0
2017-Dec-08 09:30N 29°44' W 095°08'0 0.0
2017-Dec-08 09:00N 29°44' W 095°08'0 0.0
2017-Dec-08 08:30N 29°44' W 095°08'0 0.0
2017-Dec-08 08:00N 29°44' W 095°08'0 0.0
2017-Dec-08 07:30N 29°44' W 095°08'0 0.0
2017-Dec-08 07:00N 29°44' W 095°08'0 0.0
2017-Dec-08 06:30N 29°44' W 095°08'0 0.0
2017-Dec-08 06:00N 29°44' W 095°08'0 0.0
2017-Dec-08 05:30N 29°44' W 095°08'0 0.0
2017-Dec-08 05:00N 29°44' W 095°08'0 0.0
2017-Dec-08 04:30N 29°44' W 095°08'0 0.0
2017-Dec-08 04:00N 29°44' W 095°08'0 0.6
2017-Dec-08 03:28N 29°44' W 095°08'0 0.7
2017-Dec-08 03:00N 29°44' W 095°08'0 0.0
2017-Dec-08 02:30N 29°44' W 095°08'0 0.0
2017-Dec-08 02:00N 29°44' W 095°08'0 0.0
2017-Dec-08 01:30N 29°44' W 095°08'0 0.2
2017-Dec-08 00:01N 29°44' W 095°08'3 0.4
2017-Dec-07 16:50N 29°45' W 095°06'3 2.4
2017-Dec-07 15:36N 29°44' W 095°09'1 0.2
2017-Dec-07 08:59N 29°44' W 095°10'0 0.0
2017-Dec-07 08:30N 29°44' W 095°10'0 0.0
2017-Dec-07 08:00N 29°44' W 095°10'0 0.0
2017-Dec-07 07:29N 29°44' W 095°10'0 0.0
2017-Dec-07 07:00N 29°44' W 095°10'0 0.0
2017-Dec-07 06:30N 29°44' W 095°10'  

Dump ship's entire track history